Time;durP1;ratioP1;P1;durP2;ratioP2;P2;SDS_P1;SDS_P2;PMS_P1;PMS_P2;Temp;Humidity;BMP_temperature;BMP_pressure;BME280_temperature;BME280_humidity;BME280_pressure;Samples;Min_cycle;Max_cycle;Signal;HPM_P1;HPM_P2
2024/02/16 00:01:50;;;;;;;4.43;2.93;;;11.20;99.90;;;;;;4988033;28;20220;-79
2024/02/16 00:04:16;;;;;;;5.80;2.40;;;11.20;99.90;;;;;;4982629;28;20205;-79
2024/02/16 00:06:43;;;;;;;6.43;2.67;;;11.10;99.90;;;;;;4987987;28;20206;-79
2024/02/16 00:09:10;;;;;;;5.10;2.97;;;11.20;99.90;;;;;;4988906;28;20232;-80
2024/02/16 00:11:37;;;;;;;5.43;3.73;;;11.30;99.90;;;;;;4987055;28;20224;-81
2024/02/16 00:14:04;;;;;;;4.80;3.00;;;11.50;99.90;;;;;;4984986;28;20209;-81
2024/02/16 00:16:31;;;;;;;5.97;2.57;;;11.70;99.90;;;;;;4985952;28;20215;-82
2024/02/16 00:18:59;;;;;;;4.33;2.70;;;11.50;99.90;;;;;;4987503;28;20217;-80
2024/02/16 00:21:26;;;;;;;5.07;2.60;;;11.40;1.00;;;;;;4990423;28;20200;-81
2024/02/16 00:23:53;;;;;;;6.50;2.33;;;11.30;99.90;;;;;;4988355;28;20201;-82
2024/02/16 00:26:21;;;;;;;4.60;2.47;;;11.10;1.00;;;;;;4989206;28;20198;-80
2024/02/16 00:28:48;;;;;;;4.17;2.70;;;11.00;1.00;;;;;;4989807;28;20230;-81
2024/02/16 00:31:14;;;;;;;3.97;2.23;;;10.90;1.00;;;;;;4991610;28;20652;-81
2024/02/16 00:33:42;;;;;;;3.83;2.23;;;10.90;99.90;;;;;;4992755;28;20719;-82
2024/02/16 00:36:10;;;;;;;2.83;2.63;;;11.00;39.50;;;;;;4992760;28;20205;-82
2024/02/16 00:38:37;;;;;;;4.80;2.30;;;10.90;50.60;;;;;;4990647;28;20256;-82
2024/02/16 00:41:04;;;;;;;4.03;2.60;;;10.90;99.90;;;;;;4994704;28;20292;-81
2024/02/16 00:43:31;;;;;;;4.23;2.60;;;10.80;99.90;;;;;;4993655;28;20383;-80
2024/02/16 00:45:58;;;;;;;3.53;2.50;;;10.80;99.90;;;;;;4996293;28;20212;-81
2024/02/16 00:48:25;;;;;;;6.63;2.53;;;10.70;99.90;;;;;;4996214;28;20231;-81
2024/02/16 00:50:51;;;;;;;3.47;2.20;;;10.70;99.90;;;;;;4996497;28;20209;-82
2024/02/16 00:53:20;;;;;;;5.50;2.43;;;10.70;99.90;;;;;;4994695;28;20291;-82
2024/02/16 00:55:46;;;;;;;3.37;2.47;;;10.80;99.90;;;;;;4986252;28;20201;-80
2024/02/16 00:58:13;;;;;;;3.77;2.20;;;10.80;1.00;;;;;;4985398;28;20221;-82
2024/02/16 01:00:41;;;;;;;3.93;2.30;;;10.70;1.00;;;;;;4987694;28;20664;-82
2024/02/16 01:03:07;;;;;;;3.17;2.30;;;10.80;1.00;;;;;;4984493;28;20213;-81
2024/02/16 01:05:35;;;;;;;4.20;2.33;;;10.90;1.00;;;;;;4986313;28;20272;-82
2024/02/16 01:08:02;;;;;;;5.63;2.50;;;11.00;1.00;;;;;;4987781;28;20228;-82
2024/02/16 01:10:30;;;;;;;3.33;2.10;;;11.00;99.90;;;;;;4993067;28;20648;-80
2024/02/16 01:12:57;;;;;;;3.37;2.50;;;11.00;68.40;;;;;;4997505;28;20205;-82
2024/02/16 01:15:23;;;;;;;6.00;2.77;;;11.20;1.00;;;;;;4987902;28;20213;-82
2024/02/16 01:17:50;;;;;;;4.73;2.40;;;10.90;99.90;;;;;;4994562;28;20614;-81
2024/02/16 01:20:17;;;;;;;3.60;1.97;;;10.60;1.00;;;;;;4992095;28;20263;-82
2024/02/16 01:22:44;;;;;;;4.63;2.30;;;10.40;1.00;;;;;;4999406;28;20212;-81
2024/02/16 01:25:11;;;;;;;4.53;2.10;;;10.50;1.00;;;;;;4991760;28;20577;-81
2024/02/16 01:27:40;;;;;;;5.83;2.33;;;10.60;1.00;;;;;;4990126;28;20317;-80
2024/02/16 01:30:08;;;;;;;4.27;2.00;;;10.90;99.90;;;;;;4993989;28;20232;-81
2024/02/16 01:32:35;;;;;;;2.50;2.13;;;11.10;99.90;;;;;;4996453;28;20213;-81
2024/02/16 01:35:02;;;;;;;4.70;2.33;;;11.20;1.00;;;;;;4997176;28;20205;-81
2024/02/16 01:37:29;;;;;;;2.40;2.20;;;11.50;1.00;;;;;;4994892;28;20228;-80
2024/02/16 01:39:56;;;;;;;3.70;2.30;;;11.40;1.00;;;;;;4996020;28;20667;-81
2024/02/16 01:42:22;;;;;;;5.50;2.27;;;11.60;99.90;;;;;;4996693;28;20225;-80
2024/02/16 01:44:51;;;;;;;4.73;2.27;;;11.50;99.90;;;;;;4996322;28;20213;-82
2024/02/16 01:47:19;;;;;;;4.27;2.20;;;11.50;99.90;;;;;;4993001;28;20198;-81
2024/02/16 01:49:46;;;;;;;4.03;2.20;;;11.60;1.00;;;;;;4997479;28;20228;-82
2024/02/16 01:52:13;;;;;;;4.53;2.50;;;11.60;1.00;;;;;;4999805;28;20280;-80
2024/02/16 01:54:40;;;;;;;3.23;1.93;;;11.50;1.00;;;;;;4998061;28;20200;-79
2024/02/16 01:57:07;;;;;;;3.37;2.20;;;11.50;1.00;;;;;;4988322;28;20577;-81
2024/02/16 01:59:36;;;;;;;2.47;2.10;;;11.70;1.00;;;;;;4995872;28;20225;-80
2024/02/16 02:02:04;;;;;;;8.47;2.53;;;11.60;99.90;;;;;;4986752;28;20206;-81
2024/02/16 02:04:31;;;;;;;6.00;2.17;;;11.50;99.90;;;;;;4986821;28;20292;-80
2024/02/16 02:06:58;;;;;;;3.50;2.00;;;11.70;99.90;;;;;;4983754;28;20201;-79
2024/02/16 02:09:25;;;;;;;2.70;2.30;;;11.60;99.90;;;;;;4991524;28;20321;-81
2024/02/16 02:11:52;;;;;;;4.40;2.13;;;11.50;99.90;;;;;;4988598;28;20207;-81
2024/02/16 02:14:22;;;;;;;4.37;2.20;;;11.40;99.90;;;;;;4989248;28;20209;-81
2024/02/16 02:16:49;;;;;;;4.27;2.63;;;11.20;1.00;;;;;;4987757;28;20237;-80
2024/02/16 02:19:17;;;;;;;4.77;2.30;;;11.40;99.90;;;;;;4993174;28;20786;-80
2024/02/16 02:21:44;;;;;;;4.40;2.20;;;11.20;99.90;;;;;;4992264;28;20620;-80
2024/02/16 02:24:12;;;;;;;3.30;2.17;;;11.00;1.00;;;;;;4994207;28;20624;-81
2024/02/16 02:26:39;;;;;;;3.73;1.87;;;11.30;1.00;;;;;;4988964;28;20203;-80
2024/02/16 02:29:06;;;;;;;5.73;2.90;;;11.10;1.00;;;;;;4989612;28;20247;-79
2024/02/16 02:31:33;;;;;;;5.27;2.60;;;11.00;1.00;;;;;;4992698;28;20225;-80
2024/02/16 02:34:00;;;;;;;3.00;1.90;;;10.70;99.90;;;;;;4993907;28;20211;-81
2024/02/16 02:36:26;;;;;;;8.00;2.60;;;11.10;1.00;;;;;;4992524;28;20225;-80
2024/02/16 02:38:53;;;;;;;4.37;2.30;;;11.20;1.00;;;;;;4996061;28;20225;-79
2024/02/16 02:41:22;;;;;;;4.13;2.13;;;11.20;1.00;;;;;;4996832;28;20268;-78
2024/02/16 02:43:48;;;;;;;3.53;2.00;;;11.10;1.00;;;;;;4993912;28;20209;-80
2024/02/16 02:46:16;;;;;;;3.63;1.80;;;11.30;99.90;;;;;;4997067;28;20280;-80
2024/02/16 02:48:44;;;;;;;2.90;2.00;;;11.40;23.70;;;;;;4995735;28;20232;-80
2024/02/16 02:51:11;;;;;;;3.00;2.10;;;11.50;1.00;;;;;;4994829;28;20221;-80
2024/02/16 02:53:38;;;;;;;4.23;2.17;;;11.30;1.00;;;;;;5004005;28;20276;-80
2024/02/16 02:56:06;;;;;;;2.70;2.10;;;11.40;8.70;;;;;;4997752;28;20201;-79
2024/02/16 02:58:34;;;;;;;4.70;2.30;;;11.30;1.00;;;;;;4990796;28;20284;-80
2024/02/16 03:01:01;;;;;;;3.67;2.40;;;11.30;99.90;;;;;;4994406;28;20214;-80
2024/02/16 03:03:29;;;;;;;4.93;2.20;;;11.50;1.00;;;;;;4984280;28;20205;-80
2024/02/16 03:05:56;;;;;;;3.50;2.20;;;11.30;1.00;;;;;;4988798;28;20672;-80
2024/02/16 03:08:22;;;;;;;5.93;2.20;;;11.10;99.90;;;;;;4987911;28;20228;-79
2024/02/16 03:10:49;;;;;;;4.60;1.90;;;11.00;99.90;;;;;;4988186;28;20229;-80
2024/02/16 03:13:18;;;;;;;5.83;2.20;;;11.10;1.00;;;;;;4991665;28;20233;-80
2024/02/16 03:15:46;;;;;;;2.93;2.03;;;11.30;99.90;;;;;;4986851;28;20621;-80
2024/02/16 03:18:13;;;;;;;4.43;1.80;;;11.20;99.90;;;;;;4988057;28;20225;-80
2024/02/16 03:20:40;;;;;;;3.13;2.13;;;11.30;92.30;;;;;;4988969;28;20205;-80
2024/02/16 03:23:07;;;;;;;2.53;1.90;;;11.10;99.90;;;;;;4990405;28;20203;-80
2024/02/16 03:25:34;;;;;;;4.10;2.10;;;11.00;99.90;;;;;;4987805;28;20220;-80
2024/02/16 03:28:01;;;;;;;4.07;1.93;;;11.20;99.90;;;;;;4989504;28;20221;-83
2024/02/16 03:30:28;;;;;;;4.40;2.13;;;11.20;99.90;;;;;;4995264;28;20678;-80
2024/02/16 03:32:56;;;;;;;2.83;1.93;;;11.10;99.90;;;;;;4990023;28;20215;-79
2024/02/16 03:35:23;;;;;;;4.43;2.20;;;11.30;1.00;;;;;;4991346;28;20553;-81
2024/02/16 03:37:50;;;;;;;6.67;2.27;;;11.20;58.80;;;;;;4997088;28;20308;-81
2024/02/16 03:40:18;;;;;;;5.27;2.13;;;10.90;99.90;;;;;;4993433;28;20228;-80
2024/02/16 03:42:44;;;;;;;2.70;1.90;;;10.80;1.00;;;;;;4991696;28;20202;-80
2024/02/16 03:45:12;;;;;;;5.97;1.70;;;10.80;1.00;;;;;;4996450;28;20205;-80
2024/02/16 03:47:41;;;;;;;3.13;1.70;;;10.70;1.00;;;;;;4994430;28;20205;-81
2024/02/16 03:50:10;;;;;;;6.13;2.20;;;10.70;99.90;;;;;;5002355;28;20224;-80
2024/02/16 03:52:37;;;;;;;9.23;2.30;;;11.00;99.90;;;;;;4995136;28;20211;-80
2024/02/16 03:55:05;;;;;;;3.97;2.17;;;10.90;1.00;;;;;;4992694;28;20272;-80
2024/02/16 03:57:32;;;;;;;2.90;2.03;;;10.90;1.00;;;;;;4995480;28;20201;-80
2024/02/16 03:59:59;;;;;;;5.07;2.00;;;10.90;1.00;;;;;;4995116;28;20224;-83
2024/02/16 04:02:26;;;;;;;3.73;2.07;;;11.20;1.00;;;;;;4984655;28;20221;-79
2024/02/16 04:04:53;;;;;;;3.80;2.60;;;11.40;99.90;;;;;;4986460;28;20302;-80
2024/02/16 04:07:21;;;;;;;3.87;2.47;;;11.40;75.70;;;;;;4991027;28;20579;-79
2024/02/16 04:09:48;;;;;;;3.93;2.10;;;11.30;99.90;;;;;;4982073;28;20723;-78
2024/02/16 04:12:15;;;;;;;2.30;1.90;;;11.40;1.00;;;;;;4988729;28;20224;-81
2024/02/16 04:14:43;;;;;;;3.53;2.10;;;11.20;99.90;;;;;;4986247;28;20296;-81
2024/02/16 04:17:10;;;;;;;3.37;1.77;;;11.20;99.90;;;;;;4985685;28;20288;-80
2024/02/16 04:19:38;;;;;;;4.40;2.20;;;11.10;99.90;;;;;;4983955;28;20297;-81
2024/02/16 04:22:05;;;;;;;4.00;2.20;;;11.10;99.90;;;;;;4988426;28;20555;-82
2024/02/16 04:24:33;;;;;;;5.53;2.40;;;11.20;99.90;;;;;;4986674;28;20297;-80
2024/02/16 04:26:59;;;;;;;3.70;1.90;;;11.00;99.90;;;;;;4988767;28;20291;-82
2024/02/16 04:29:26;;;;;;;2.70;2.00;;;10.70;1.00;;;;;;4990522;28;20240;-81
2024/02/16 04:31:53;;;;;;;4.50;1.83;;;10.60;99.90;;;;;;4987905;28;20201;-81
2024/02/16 04:34:20;;;;;;;5.23;2.67;;;10.60;1.00;;;;;;4993471;28;20201;-82
2024/02/16 04:36:47;;;;;;;3.00;1.87;;;10.50;1.00;;;;;;4989992;28;20202;-81
2024/02/16 04:39:15;;;;;;;2.50;1.90;;;10.40;1.00;;;;;;4994792;28;20225;-82
2024/02/16 04:41:43;;;;;;;4.03;1.83;;;10.30;1.00;;;;;;4993264;28;20209;-82
2024/02/16 04:44:10;;;;;;;4.37;2.10;;;10.30;1.00;;;;;;4989550;28;20591;-81
2024/02/16 04:46:37;;;;;;;4.27;2.50;;;10.40;1.00;;;;;;4992359;28;20239;-84
2024/02/16 04:49:04;;;;;;;3.97;2.27;;;10.30;1.00;;;;;;4994973;28;20263;-82
2024/02/16 04:51:32;;;;;;;3.60;1.83;;;10.40;1.00;;;;;;4996002;28;20229;-82
2024/02/16 04:53:59;;;;;;;3.90;2.37;;;10.40;99.90;;;;;;4995730;28;20208;-82
2024/02/16 04:56:27;;;;;;;3.00;2.23;;;10.70;1.00;;;;;;4994317;28;20281;-81
2024/02/16 04:58:55;;;;;;;4.80;2.30;;;10.60;1.00;;;;;;4993031;28;20232;-81
2024/02/16 05:01:21;;;;;;;4.70;2.30;;;10.50;1.00;;;;;;4993676;28;20201;-81
2024/02/16 05:03:48;;;;;;;4.37;2.17;;;10.40;1.00;;;;;;4985558;28;20236;-80
2024/02/16 05:06:15;;;;;;;3.37;2.00;;;10.50;1.00;;;;;;4982678;28;20212;-80
2024/02/16 05:08:42;;;;;;;3.20;1.97;;;10.50;12.90;;;;;;4987372;28;20247;-80
2024/02/16 05:11:09;;;;;;;4.33;2.27;;;10.60;1.00;;;;;;4982567;28;20239;-80
2024/02/16 05:13:37;;;;;;;3.80;2.10;;;10.50;1.00;;;;;;4983213;28;20217;-81
2024/02/16 05:16:09;;;;;;;4.40;2.27;;;10.50;1.00;;;;;;4989575;28;20911;-80
2024/02/16 05:18:36;;;;;;;3.17;1.80;;;10.50;1.00;;;;;;4987382;28;20224;-80
2024/02/16 05:21:03;;;;;;;3.77;2.10;;;10.60;1.00;;;;;;4983700;28;20201;-81
2024/02/16 05:23:31;;;;;;;4.83;2.50;;;10.70;1.00;;;;;;4984771;28;20201;-81
2024/02/16 05:25:57;;;;;;;2.73;2.30;;;10.60;1.00;;;;;;4983413;28;20209;-81
2024/02/16 05:28:24;;;;;;;4.57;2.10;;;10.70;1.00;;;;;;4986106;28;20225;-82
2024/02/16 05:30:51;;;;;;;3.60;2.23;;;10.70;1.00;;;;;;4990384;28;20234;-83
2024/02/16 05:33:19;;;;;;;2.80;1.93;;;10.70;1.00;;;;;;4991019;28;20201;-81
2024/02/16 05:35:51;;;;;;;5.37;2.10;;;10.90;99.90;;;;;;4989340;28;20256;-82
2024/02/16 05:38:31;;;;;;;6.00;2.43;;;10.90;99.90;;;;;;4995160;28;20233;-81
2024/02/16 05:40:58;;;;;;;4.30;2.20;;;11.30;1.00;;;;;;4988686;28;20205;-81
2024/02/16 05:43:25;;;;;;;2.90;2.10;;;11.10;1.00;;;;;;4988359;28;20221;-84
2024/02/16 05:45:52;;;;;;;3.60;2.10;;;11.10;1.00;;;;;;4996116;28;20659;-80
2024/02/16 05:48:21;;;;;;;3.20;2.17;;;11.20;99.90;;;;;;4993215;28;20274;-81
2024/02/16 05:50:48;;;;;;;2.60;2.03;;;11.20;99.90;;;;;;4991583;28;20343;-81
2024/02/16 05:53:15;;;;;;;3.10;1.90;;;11.20;99.90;;;;;;4990166;28;20300;-81
2024/02/16 05:55:44;;;;;;;3.23;2.33;;;11.30;99.90;;;;;;4997122;28;20280;-80
2024/02/16 05:58:12;;;;;;;3.50;2.63;;;11.10;99.90;;;;;;4993924;28;20279;-81
2024/02/16 06:00:38;;;;;;;3.57;2.27;;;11.10;99.90;;;;;;4999325;28;20627;-80
2024/02/16 06:03:07;;;;;;;4.23;2.40;;;11.10;99.90;;;;;;4988847;28;20204;-80
2024/02/16 06:05:35;;;;;;;4.23;2.80;;;11.10;99.90;;;;;;4993662;28;20245;-80
2024/02/16 06:08:02;;;;;;;5.47;2.43;;;11.20;99.90;;;;;;4987607;28;20260;-80
2024/02/16 06:10:29;;;;;;;4.77;2.23;;;11.20;1.00;;;;;;4984085;28;20229;-80
2024/02/16 06:12:56;;;;;;;4.00;2.20;;;11.30;1.00;;;;;;4981943;28;20208;-80
2024/02/16 06:15:22;;;;;;;4.33;2.40;;;11.10;52.10;;;;;;4985407;28;20235;-80
2024/02/16 06:17:50;;;;;;;2.20;2.00;;;11.00;99.90;;;;;;4995550;28;20311;-80
2024/02/16 06:20:17;;;;;;;4.63;2.30;;;11.00;99.90;;;;;;4984395;28;20214;-80
2024/02/16 06:22:46;;;;;;;2.73;2.20;;;11.10;9.30;;;;;;4988317;28;20587;-81
2024/02/16 06:25:12;;;;;;;3.63;2.23;;;11.20;1.00;;;;;;4987627;28;20464;-80
2024/02/16 06:27:40;;;;;;;4.70;2.23;;;11.20;1.00;;;;;;4991815;28;20210;-81
2024/02/16 06:30:12;;;;;;;3.10;2.07;;;11.10;1.00;;;;;;4989304;28;20695;-80
2024/02/16 06:32:40;;;;;;;3.13;2.43;;;11.10;1.00;;;;;;4990320;28;20234;-80
2024/02/16 06:35:08;;;;;;;3.10;2.23;;;11.00;1.00;;;;;;4993971;28;20201;-81
2024/02/16 06:37:37;;;;;;;3.13;1.90;;;11.10;1.00;;;;;;4991456;28;20213;-80
2024/02/16 06:40:06;;;;;;;3.80;2.30;;;11.20;1.00;;;;;;4993380;28;20204;-81
2024/02/16 06:42:33;;;;;;;4.03;2.73;;;11.40;1.00;;;;;;4992361;28;20215;-82
2024/02/16 06:45:00;;;;;;;2.70;2.00;;;11.20;1.00;;;;;;4991714;28;22109;-80
2024/02/16 06:47:29;;;;;;;3.97;2.03;;;11.00;1.00;;;;;;4994083;28;20223;-81
2024/02/16 06:49:56;;;;;;;4.47;2.60;;;11.20;1.00;;;;;;4995728;28;20581;-81
2024/02/16 06:52:23;;;;;;;3.43;2.13;;;11.40;1.00;;;;;;4995097;28;20684;-82
2024/02/16 06:54:51;;;;;;;4.43;2.30;;;11.10;1.00;;;;;;4993836;28;20676;-82
2024/02/16 06:57:19;;;;;;;2.87;2.37;;;11.00;1.00;;;;;;4996399;28;20672;-81
2024/02/16 06:59:46;;;;;;;3.33;2.03;;;11.00;1.00;;;;;;4992535;28;20771;-82
2024/02/16 07:02:14;;;;;;;2.27;2.07;;;11.00;1.00;;;;;;4996043;28;20224;-83
2024/02/16 07:04:41;;;;;;;3.37;2.10;;;11.20;1.00;;;;;;4993005;28;20269;-82
2024/02/16 07:07:08;;;;;;;4.83;2.30;;;11.30;1.00;;;;;;4989951;28;20441;-80
2024/02/16 07:09:35;;;;;;;5.63;2.50;;;11.40;1.00;;;;;;4995959;28;20328;-81
2024/02/16 07:12:02;;;;;;;5.80;2.40;;;11.40;99.90;;;;;;4997593;28;20235;-82
2024/02/16 07:14:30;;;;;;;3.13;2.23;;;11.50;99.90;;;;;;4998124;28;20194;-82
2024/02/16 07:16:57;;;;;;;4.43;2.73;;;11.40;99.90;;;;;;4994250;28;20634;-82
2024/02/16 07:19:24;;;;;;;3.67;2.03;;;11.30;1.00;;;;;;4987102;28;20297;-81
2024/02/16 07:21:52;;;;;;;2.93;2.43;;;11.40;1.00;;;;;;4994124;28;20210;-81
2024/02/16 07:24:19;;;;;;;4.20;2.30;;;11.50;99.90;;;;;;4989116;28;20201;-82
2024/02/16 07:26:46;;;;;;;4.80;2.80;;;11.60;99.90;;;;;;4991422;28;20296;-82
2024/02/16 07:29:16;;;;;;;2.73;2.30;;;11.50;99.90;;;;;;4990313;28;20240;-81
2024/02/16 07:31:44;;;;;;;4.90;2.30;;;11.50;99.90;;;;;;4993087;28;20256;-82
2024/02/16 07:34:12;;;;;;;4.70;2.40;;;11.40;1.00;;;;;;4991808;28;20497;-81
2024/02/16 07:36:39;;;;;;;5.40;2.83;;;11.40;1.00;;;;;;4995609;28;20212;-82
2024/02/16 07:39:05;;;;;;;6.40;2.60;;;11.40;1.00;;;;;;4992402;28;20267;-81
2024/02/16 07:41:32;;;;;;;4.53;2.80;;;11.40;1.00;;;;;;4993820;28;20735;-81
2024/02/16 07:43:59;;;;;;;4.70;2.23;;;11.20;1.00;;;;;;4994720;28;20645;-81
2024/02/16 07:46:26;;;;;;;5.30;2.43;;;11.40;1.00;;;;;;5000816;28;20291;-82
2024/02/16 07:48:54;;;;;;;7.40;3.27;;;11.40;1.00;;;;;;4996718;28;20609;-82
2024/02/16 07:51:21;;;;;;;2.80;2.40;;;11.60;1.00;;;;;;4998204;28;20712;-82
2024/02/16 07:53:48;;;;;;;4.63;2.60;;;11.60;1.00;;;;;;4997467;28;20224;-82
2024/02/16 07:56:16;;;;;;;4.60;2.20;;;12.00;99.90;;;;;;4991290;28;20201;-82
2024/02/16 07:58:43;;;;;;;4.30;2.80;;;12.20;1.00;;;;;;4994332;28;20233;-82
2024/02/16 08:01:15;;;;;;;3.20;2.33;;;12.20;1.00;;;;;;4995280;28;20198;-82
2024/02/16 08:03:41;;;;;;;5.07;2.37;;;12.40;1.00;;;;;;4996312;28;20216;-82
2024/02/16 08:06:10;;;;;;;3.23;2.33;;;12.40;1.00;;;;;;4992285;28;20202;-82
2024/02/16 08:08:36;;;;;;;3.43;2.00;;;12.40;1.00;;;;;;4996095;28;20241;-82
2024/02/16 08:11:03;;;;;;;3.00;2.23;;;12.70;1.00;;;;;;4993036;28;20320;-83
2024/02/16 08:13:30;;;;;;;4.37;2.17;;;12.80;1.00;;;;;;4992303;28;20212;-81
2024/02/16 08:15:57;;;;;;;3.97;2.37;;;12.90;1.00;;;;;;4991544;28;20296;-81
2024/02/16 08:18:24;;;;;;;3.70;2.10;;;12.90;1.00;;;;;;4984039;28;20233;-82
2024/02/16 08:20:51;;;;;;;4.50;2.43;;;12.90;1.00;;;;;;4985951;28;20209;-82
2024/02/16 08:23:20;;;;;;;2.67;1.93;;;13.20;1.00;;;;;;4992891;28;20239;-82
2024/02/16 08:25:47;;;;;;;4.10;2.37;;;13.30;1.00;;;;;;4986722;28;20641;-83
2024/02/16 08:28:14;;;;;;;5.37;2.40;;;13.30;1.00;;;;;;4988946;28;20235;-82
2024/02/16 08:30:43;;;;;;;3.33;2.45;;;13.50;99.90;;;;;;4987105;28;20213;-83
2024/02/16 08:33:10;;;;;;;2.10;1.83;;;13.70;99.90;;;;;;4993808;28;20203;-82
2024/02/16 08:35:37;;;;;;;4.63;2.30;;;13.90;99.90;;;;;;4991641;28;20206;-81
2024/02/16 08:38:04;;;;;;;4.23;2.10;;;13.90;99.90;;;;;;4992376;28;20225;-82
2024/02/16 08:40:33;;;;;;;2.88;2.15;;;13.80;99.90;;;;;;4989020;28;20706;-82
2024/02/16 08:43:01;;;;;;;5.00;2.20;;;13.70;99.90;;;;;;4994296;28;20236;-82
2024/02/16 08:45:28;;;;;;;3.58;2.28;;;13.50;99.90;;;;;;4993436;28;20611;-82
2024/02/16 08:47:57;;;;;;;2.83;2.17;;;13.40;99.90;;;;;;4998084;28;20775;-83
2024/02/16 08:50:24;;;;;;;7.15;2.28;;;13.40;99.90;;;;;;4994829;28;20208;-81
2024/02/16 08:52:51;;;;;;;3.63;2.08;;;13.40;99.90;;;;;;4993019;28;20279;-82
2024/02/16 08:55:18;;;;;;;2.33;2.10;;;13.40;99.90;;;;;;4991894;28;20220;-82
2024/02/16 08:57:46;;;;;;;4.78;2.88;;;13.40;1.00;;;;;;4992815;28;20235;-82
2024/02/16 09:00:16;;;;;;;3.92;2.10;;;13.50;1.00;;;;;;4988590;28;20296;-82
2024/02/16 09:02:42;;;;;;;3.60;1.90;;;13.70;99.90;;;;;;4988798;28;20261;-82
2024/02/16 09:05:11;;;;;;;3.17;2.22;;;13.80;99.90;;;;;;4989985;28;20666;-81
2024/02/16 09:07:38;;;;;;;4.63;2.00;;;13.80;99.90;;;;;;4991454;28;20209;-82
2024/02/16 09:10:06;;;;;;;5.23;2.13;;;14.00;99.90;;;;;;4990653;28;20232;-81
2024/02/16 09:12:32;;;;;;;3.00;2.17;;;14.00;99.90;;;;;;4995925;28;20714;-81
2024/02/16 09:15:01;;;;;;;3.75;2.28;;;14.10;99.90;;;;;;4987653;28;20209;-81
2024/02/16 09:17:27;;;;;;;3.05;2.13;;;14.10;99.90;;;;;;4989525;28;20314;-82
2024/02/16 09:19:54;;;;;;;3.97;2.20;;;14.20;99.90;;;;;;4988262;28;21005;-83
2024/02/16 09:22:21;;;;;;;3.58;2.15;;;14.30;99.90;;;;;;4988253;28;20198;-81
2024/02/16 09:24:48;;;;;;;3.25;1.85;;;14.20;99.90;;;;;;4991132;28;20212;-81
2024/02/16 09:27:15;;;;;;;3.63;2.05;;;14.30;99.90;;;;;;4990272;28;20208;-81
2024/02/16 09:29:42;;;;;;;3.05;2.03;;;14.20;1.00;;;;;;4989015;28;20222;-82
2024/02/16 09:32:10;;;;;;;3.08;1.90;;;14.20;99.90;;;;;;4994825;28;20222;-82
2024/02/16 09:34:37;;;;;;;4.25;2.08;;;14.20;99.90;;;;;;4992941;28;20206;-81
2024/02/16 09:37:04;;;;;;;4.38;2.20;;;14.30;99.90;;;;;;4993009;28;20205;-81
2024/02/16 09:39:32;;;;;;;3.25;2.05;;;14.30;99.90;;;;;;4994137;28;20709;-82
2024/02/16 09:41:58;;;;;;;4.25;2.33;;;14.30;99.90;;;;;;4991038;28;20209;-81
2024/02/16 09:44:26;;;;;;;3.95;2.15;;;14.30;99.90;;;;;;4991571;28;20663;-81
2024/02/16 09:46:55;;;;;;;2.80;2.22;;;14.30;99.90;;;;;;4994305;28;20217;-80
2024/02/16 09:49:23;;;;;;;4.32;2.13;;;14.30;99.90;;;;;;4994288;28;20229;-81
2024/02/16 09:51:50;;;;;;;2.88;2.00;;;14.30;1.00;;;;;;4996446;28;20971;-81
2024/02/16 09:54:17;;;;;;;3.25;2.00;;;14.40;1.00;;;;;;4995196;28;20237;-80
2024/02/16 09:56:46;;;;;;;3.13;2.08;;;14.30;1.00;;;;;;4998140;28;20213;-81
2024/02/16 09:59:13;;;;;;;3.90;2.35;;;14.30;99.90;;;;;;4991119;28;20643;-81
2024/02/16 10:01:40;;;;;;;3.10;2.15;;;14.50;99.90;;;;;;4992582;28;20284;-81
2024/02/16 10:04:08;;;;;;;4.28;2.30;;;14.50;99.90;;;;;;4993006;28;20296;-81
2024/02/16 10:06:47;;;;;;;2.38;2.17;;;14.50;99.90;;;;;;4994890;28;20275;-82
2024/02/16 10:09:24;;;;;;;4.53;2.45;;;14.60;99.90;;;;;;4990513;28;20225;-82
2024/02/16 10:11:50;;;;;;;3.47;2.20;;;14.50;99.90;;;;;;4996309;28;20255;-82
2024/02/16 10:14:19;;;;;;;5.20;2.42;;;14.50;99.90;;;;;;4992729;28;20256;-81
2024/02/16 10:16:46;;;;;;;3.55;2.13;;;14.70;55.30;;;;;;4999694;28;20208;-81
2024/02/16 10:19:14;;;;;;;4.50;2.65;;;14.70;68.90;;;;;;4992314;28;20425;-81
2024/02/16 10:21:42;;;;;;;2.70;2.30;;;14.70;99.90;;;;;;4997536;28;20704;-81
2024/02/16 10:24:14;;;;;;;8.68;2.50;;;14.70;26.30;;;;;;4994793;28;20232;-81
2024/02/16 10:26:41;;;;;;;4.65;2.42;;;14.70;19.80;;;;;;4995017;28;20213;-81
2024/02/16 10:29:10;;;;;;;4.53;2.55;;;14.60;1.00;;;;;;4988690;28;20303;-81
2024/02/16 10:31:38;;;;;;;4.93;2.40;;;14.70;1.00;;;;;;4988057;28;20301;-81
2024/02/16 10:34:06;;;;;;;3.70;2.35;;;14.70;2.50;;;;;;4989458;28;20219;-81
2024/02/16 10:36:34;;;;;;;4.57;2.08;;;14.70;16.70;;;;;;4996698;28;20223;-81
2024/02/16 10:39:04;;;;;;;4.88;2.47;;;14.70;1.00;;;;;;4991410;28;20233;-81
2024/02/16 10:41:35;;;;;;;5.97;2.78;;;14.70;11.80;;;;;;4990751;28;20279;-81
2024/02/16 10:44:03;;;;;;;4.93;2.45;;;14.70;1.00;;;;;;4990619;28;20217;-81
2024/02/16 10:46:31;;;;;;;3.92;2.47;;;14.70;99.90;;;;;;4992064;28;20205;-82
2024/02/16 10:48:58;;;;;;;3.30;2.25;;;14.80;99.90;;;;;;4988739;28;20727;-81
2024/02/16 10:51:30;;;;;;;3.38;2.30;;;14.80;99.90;;;;;;4995408;28;20218;-81
2024/02/16 10:53:58;;;;;;;3.83;2.42;;;14.80;99.90;;;;;;4991625;28;20304;-80
2024/02/16 10:56:34;;;;;;;2.67;2.20;;;14.90;99.90;;;;;;4996354;28;20209;-81
2024/02/16 10:59:05;;;;;;;2.90;2.13;;;14.90;99.90;;;;;;4992299;28;20590;-81
2024/02/16 11:01:39;;;;;;;3.40;2.42;;;14.90;99.90;;;;;;4993121;28;20205;-81
2024/02/16 11:04:09;;;;;;;2.40;1.73;;;14.90;99.90;;;;;;4988453;28;20204;-82
2024/02/16 11:06:49;;;;;;;3.05;2.22;;;14.90;99.90;;;;;;4990022;28;20201;-81
2024/02/16 11:09:28;;;;;;;3.00;2.40;;;15.00;99.90;;;;;;4990153;28;20231;-82
2024/02/16 11:12:00;;;;;;;4.18;2.38;;;15.00;99.90;;;;;;4992321;28;20625;-82
2024/02/16 11:14:36;;;;;;;3.53;2.20;;;15.00;92.60;;;;;;4990288;28;20214;-81
2024/02/16 11:17:03;;;;;;;4.07;2.40;;;15.20;92.70;;;;;;4993108;28;20227;-81
2024/02/16 11:19:31;;;;;;;3.53;2.40;;;15.20;99.90;;;;;;4993445;28;20217;-81
2024/02/16 11:21:58;;;;;;;3.50;2.25;;;15.20;92.50;;;;;;4995704;28;20211;-81
2024/02/16 11:24:32;;;;;;;5.43;2.70;;;15.20;99.90;;;;;;4997058;28;20741;-82
2024/02/16 11:27:03;;;;;;;2.88;2.38;;;15.30;80.70;;;;;;4995042;28;20201;-81
2024/02/16 11:29:33;;;;;;;5.05;2.35;;;15.20;64.50;;;;;;4997841;28;20229;-81
2024/02/16 11:32:00;;;;;;;5.10;2.28;;;15.30;12.90;;;;;;4996171;28;20209;-82
2024/02/16 11:34:27;;;;;;;4.43;2.75;;;15.30;93.90;;;;;;4990860;28;20305;-81
2024/02/16 11:36:55;;;;;;;2.75;2.10;;;15.30;33.80;;;;;;4992636;28;20205;-81
2024/02/16 11:39:23;;;;;;;4.13;2.17;;;15.40;1.00;;;;;;4989093;28;20247;-80
2024/02/16 11:42:02;;;;;;;3.10;2.17;;;15.40;1.00;;;;;;4990159;28;20210;-81
2024/02/16 11:44:30;;;;;;;3.72;2.58;;;15.40;1.00;;;;;;4990518;28;20702;-81
2024/02/16 11:46:57;;;;;;;4.78;2.83;;;15.40;1.00;;;;;;4994713;28;20359;-82
2024/02/16 11:49:23;;;;;;;3.08;2.25;;;15.40;1.00;;;;;;4993878;28;20225;-82
2024/02/16 11:51:50;;;;;;;3.38;2.20;;;15.40;8.10;;;;;;4992524;28;20240;-81
2024/02/16 11:54:17;;;;;;;4.93;2.30;;;15.70;1.00;;;;;;4992505;28;20209;-83
2024/02/16 11:56:45;;;;;;;5.70;2.88;;;15.60;1.00;;;;;;4993773;28;20574;-82
2024/02/16 11:59:15;;;;;;;3.45;2.38;;;15.70;1.00;;;;;;4985655;28;20230;-83
2024/02/16 12:01:52;;;;;;;4.00;2.33;;;15.70;1.00;;;;;;4990014;28;20197;-82
2024/02/16 12:04:24;;;;;;;4.63;2.50;;;15.70;1.00;;;;;;4988891;28;20240;-82
2024/02/16 12:06:53;;;;;;;5.05;2.83;;;15.70;4.30;;;;;;4988881;28;20206;-82
2024/02/16 12:09:20;;;;;;;5.50;2.17;;;15.80;1.00;;;;;;4986580;28;20225;-82
2024/02/16 12:11:49;;;;;;;6.82;2.58;;;15.80;1.00;;;;;;4992882;28;20201;-82
2024/02/16 12:14:17;;;;;;;4.72;2.72;;;15.90;1.00;;;;;;4990887;28;20533;-80
2024/02/16 12:16:47;;;;;;;4.90;2.63;;;16.00;1.00;;;;;;4988403;28;20201;-82
2024/02/16 12:19:14;;;;;;;3.35;2.63;;;16.10;1.00;;;;;;4989257;28;20231;-83
2024/02/16 12:21:41;;;;;;;3.75;2.67;;;16.20;1.00;;;;;;4991284;28;20205;-81
2024/02/16 12:24:08;;;;;;;5.57;2.58;;;16.30;1.00;;;;;;4993283;28;20201;-82
2024/02/16 12:26:35;;;;;;;5.53;2.80;;;16.30;1.00;;;;;;4995049;28;20208;-81
2024/02/16 12:29:02;;;;;;;4.00;2.60;;;16.40;1.00;;;;;;4991381;28;20229;-83
2024/02/16 12:31:31;;;;;;;4.80;2.25;;;16.60;1.00;;;;;;4995045;28;20307;-82
2024/02/16 12:33:58;;;;;;;3.38;2.53;;;16.60;1.00;;;;;;4992882;28;20228;-83
2024/02/16 12:36:24;;;;;;;4.97;3.05;;;16.60;1.00;;;;;;4994089;28;20217;-81
2024/02/16 12:38:51;;;;;;;5.80;2.58;;;16.60;1.00;;;;;;4989728;28;20221;-80
2024/02/16 12:41:18;;;;;;;6.07;2.45;;;16.60;1.00;;;;;;4986079;28;20201;-82
2024/02/16 12:43:45;;;;;;;4.00;2.83;;;16.80;1.00;;;;;;4989342;28;20316;-81
2024/02/16 12:46:12;;;;;;;4.53;2.63;;;16.70;1.00;;;;;;4992125;28;20240;-83
2024/02/16 12:48:40;;;;;;;6.97;2.60;;;16.80;1.00;;;;;;4991650;28;20231;-81
2024/02/16 12:51:07;;;;;;;4.93;2.42;;;16.60;1.00;;;;;;4992877;28;20543;-82
2024/02/16 12:53:40;;;;;;;5.47;3.05;;;16.50;1.00;;;;;;4993700;28;20252;-80
2024/02/16 12:56:08;;;;;;;7.22;3.00;;;16.40;1.00;;;;;;4991589;28;20197;-82